Date,TemperatureHighF,TemperatureAvgF,TemperatureLowF,DewpointHighF,DewpointAvgF,DewpointLowF,HumidityHigh,HumidityAvg,HumidityLow,PressureMaxIn,PressureMinIn,WindSpeedMaxMPH,WindSpeedAvgMPH,GustSpeedMaxMPH,PrecipitationSumIn
2013-2-1,42.8,31.4,25.1,34.0,18.9,11.0,85,61,40,30.42,30.11,23,6,0,0.03
2013-2-2,42.3,32.7,24.4,37.0,26.8,17.0,93,79,61,30.33,30.11,11,2,0,0.03
2013-2-3,52.3,42.4,33.7,37.0,31.3,27.0,92,68,40,30.15,30.05,20,6,0,0.01
2013-2-4,48.9,40.1,31.7,34.0,31.3,28.0,91,72,52,30.13,29.96,7,1,0,0.02
2013-2-5,56.8,49.3,43.5,50.0,43.3,33.0,93,80,64,30.04,29.93,8,1,0,0.01
2013-2-6,62.9,47.0,35.1,46.0,37.5,33.0,92,73,37,30.18,30.05,10,1,0,0.01
2013-2-7,51.4,48.9,45.4,47.0,44.1,38.0,96,84,63,30.10,29.93,14,2,0,0.02
2013-2-8,48.7,44.3,34.7,46.0,40.9,31.0,93,87,76,30.24,29.90,23,6,0,0.01
2013-2-9,59.2,43.3,30.1,35.0,31.6,28.0,92,68,34,30.29,30.16,8,2,0,0.01
2013-2-10,56.3,51.5,48.5,54.0,43.2,33.0,92,75,54,30.18,29.93,20,7,0,0.01
2013-2-11,56.9,53.1,44.5,55.0,47.9,38.0,92,83,60,30.16,29.96,10,2,0,0.01
2013-2-12,49.0,44.2,40.9,41.0,38.6,34.0,92,81,58,30.14,29.78,12,2,0,0.01
2013-2-13,46.0,42.4,34.4,43.0,39.5,32.0,93,89,82,30.00,29.68,16,5,0,0.01
2013-2-14,55.0,43.6,32.9,40.0,37.0,31.0,93,79,54,30.08,30.00,9,2,0,0.01
2013-2-15,55.6,45.3,34.9,42.0,36.9,31.0,93,74,49,30.10,30.02,14,5,0,0.04
2013-2-16,39.6,33.5,28.9,31.0,21.1,14.0,76,61,42,30.19,30.05,19,8,0,0.01
2013-2-17,46.0,33.1,18.8,26.0,17.4,13.0,86,55,32,30.29,30.18,9,1,0,0.08
2013-2-18,58.8,46.9,33.5,36.0,28.3,19.0,63,49,41,30.26,29.94,23,7,0,0.01
2013-2-19,49.9,44.9,37.1,44.0,32.8,21.0,93,66,36,30.21,29.91,19,8,0,0.00
2013-2-20,39.1,34.5,27.7,24.0,19.9,6.0,84,57,26,30.25,30.14,14,4,0,0.06
2013-2-21,54.9,42.5,32.1,44.0,29.0,19.0,92,62,29,30.16,29.83,12,3,0,0.00
2013-2-22,47.7,46.3,44.1,46.0,44.3,42.0,93,92,91,30.07,29.92,14,3,0,0.00
2013-2-23,48.6,45.0,36.4,47.0,42.8,34.0,93,91,90,30.00,29.87,5,1,0,0.01
2013-2-24,58.2,43.4,30.8,39.0,34.9,29.0,93,75,39,30.07,29.93,5,1,0,0.04
2013-2-25,55.4,47.7,42.7,43.0,36.6,30.0,92,66,56,29.96,29.66,18,7,0,0.02
2013-2-26,47.5,44.0,39.9,43.0,39.5,34.0,93,84,68,29.78,29.47,25,8,0,0.02
2013-2-27,54.9,44.7,38.9,38.0,34.4,31.0,81,68,48,29.92,29.78,18,6,0,0.03
2013-2-28,40.2,36.8,34.7,35.0,29.7,26.0,90,76,65,30.04,29.87,19,6,0,0.02